Time;durP1;ratioP1;P1;durP2;ratioP2;P2;SDS_P1;SDS_P2;PMS_P1;PMS_P2;Temp;Humidity;BMP_temperature;BMP_pressure;BME280_temperature;BME280_humidity;BME280_pressure;Samples;Min_cycle;Max_cycle;Signal;HPM_P1;HPM_P2
2023/01/14 00:01:33;;;;;;;1.47;0.40;;;5.20;99.90;;;;;;5020651;28;20622;-75
2023/01/14 00:04:01;;;;;;;1.83;0.40;;;5.20;99.90;;;;;;5024969;28;20481;-75
2023/01/14 00:06:30;;;;;;;0.60;0.30;;;5.20;99.90;;;;;;5022093;28;20489;-76
2023/01/14 00:09:01;;;;;;;6.30;0.43;;;5.20;99.90;;;;;;5025316;28;20848;-75
2023/01/14 00:11:47;;;;;;;0.43;0.30;;;5.20;99.90;;;;;;5021429;28;20450;-76
2023/01/14 00:14:17;;;;;;;0.60;0.37;;;5.20;99.90;;;;;;5025145;28;20454;-76
2023/01/14 00:16:45;;;;;;;0.50;0.40;;;5.10;99.90;;;;;;5021316;28;20462;-75
2023/01/14 00:19:12;;;;;;;2.10;0.30;;;5.20;99.90;;;;;;5022968;28;20489;-75
2023/01/14 00:21:40;;;;;;;0.40;0.30;;;5.20;99.90;;;;;;5020904;28;20584;-76
2023/01/14 00:24:07;;;;;;;0.50;0.20;;;5.20;99.90;;;;;;5022857;28;20887;-75
2023/01/14 00:26:34;;;;;;;0.80;0.30;;;5.20;99.90;;;;;;5023084;28;20459;-76
2023/01/14 00:29:01;;;;;;;0.50;0.30;;;5.30;99.90;;;;;;5025331;28;20521;-76
2023/01/14 00:31:29;;;;;;;0.60;0.30;;;5.30;99.90;;;;;;5016470;28;20478;-76
2023/01/14 00:33:59;;;;;;;0.50;0.30;;;5.30;99.90;;;;;;5018311;28;20549;-75
2023/01/14 00:36:28;;;;;;;1.53;0.30;;;5.30;99.90;;;;;;5013739;28;20469;-75
2023/01/14 00:38:55;;;;;;;0.67;0.30;;;5.40;99.90;;;;;;5017952;28;20508;-76
2023/01/14 00:41:24;;;;;;;0.40;0.20;;;5.30;99.90;;;;;;5014853;28;20950;-76
2023/01/14 00:43:53;;;;;;;1.07;0.30;;;5.40;99.90;;;;;;5014625;28;20500;-76
2023/01/14 00:46:22;;;;;;;0.43;0.30;;;5.30;99.90;;;;;;5015661;28;20518;-75
2023/01/14 00:48:51;;;;;;;0.40;0.30;;;5.30;99.90;;;;;;5015146;28;20609;-75
2023/01/14 00:51:19;;;;;;;0.70;0.20;;;5.30;99.90;;;;;;5015345;28;20480;-76
2023/01/14 00:53:46;;;;;;;0.50;0.30;;;5.30;99.90;;;;;;5016560;28;20547;-75
2023/01/14 00:56:14;;;;;;;0.70;0.43;;;5.30;99.90;;;;;;5017660;28;20443;-75
2023/01/14 00:58:42;;;;;;;0.50;0.20;;;5.30;99.90;;;;;;5020469;28;20548;-76
2023/01/14 01:01:09;;;;;;;2.20;0.20;;;5.30;99.90;;;;;;5024774;28;20940;-76
2023/01/14 01:03:39;;;;;;;1.30;0.20;;;5.40;99.90;;;;;;5020441;28;20490;-76
2023/01/14 01:06:07;;;;;;;1.23;0.20;;;5.40;99.90;;;;;;5022436;28;20962;-75
2023/01/14 01:08:35;;;;;;;0.50;0.30;;;5.50;99.90;;;;;;5022375;28;20521;-75
2023/01/14 01:11:02;;;;;;;0.40;0.20;;;5.50;99.90;;;;;;5021196;28;20512;-76
2023/01/14 01:13:29;;;;;;;0.57;0.33;;;5.50;99.90;;;;;;5025172;28;20929;-76
2023/01/14 01:16:00;;;;;;;1.33;0.30;;;5.50;99.90;;;;;;5015462;28;20461;-75
2023/01/14 01:18:28;;;;;;;0.60;0.37;;;5.50;99.90;;;;;;5019242;28;20473;-75
2023/01/14 01:21:01;;;;;;;0.60;0.20;;;5.50;99.90;;;;;;5022075;28;20996;-75
2023/01/14 01:23:30;;;;;;;0.40;0.20;;;5.40;99.90;;;;;;5020806;28;20505;-75
2023/01/14 01:26:01;;;;;;;1.13;0.30;;;5.40;99.90;;;;;;5019825;28;20489;-75
2023/01/14 01:28:28;;;;;;;0.70;0.20;;;5.40;99.90;;;;;;5021848;28;20485;-75
2023/01/14 01:30:59;;;;;;;1.13;0.20;;;5.40;99.90;;;;;;5022718;28;20493;-75
2023/01/14 01:33:26;;;;;;;0.43;0.30;;;5.40;99.90;;;;;;5022481;28;20528;-75
2023/01/14 01:35:59;;;;;;;2.20;0.30;;;5.40;99.90;;;;;;5021281;28;20459;-75
2023/01/14 01:38:26;;;;;;;0.40;0.30;;;5.40;99.90;;;;;;5023434;28;20559;-75
2023/01/14 01:40:54;;;;;;;0.50;0.30;;;5.40;99.90;;;;;;5019419;28;20596;-76
2023/01/14 01:43:23;;;;;;;0.60;0.27;;;5.40;99.90;;;;;;5023173;28;20505;-75
2023/01/14 01:45:51;;;;;;;1.70;0.50;;;5.40;99.90;;;;;;5022464;28;20491;-75
2023/01/14 01:48:25;;;;;;;0.40;0.30;;;5.30;99.90;;;;;;5017780;28;21117;-76
2023/01/14 01:50:58;;;;;;;1.03;0.30;;;5.30;99.90;;;;;;5022130;28;20709;-76
2023/01/14 01:53:25;;;;;;;1.33;0.27;;;5.30;99.90;;;;;;5020633;28;20458;-75
2023/01/14 01:55:56;;;;;;;1.07;0.30;;;5.30;99.90;;;;;;5019514;28;20506;-75
2023/01/14 01:58:26;;;;;;;0.57;0.20;;;5.30;99.90;;;;;;5021576;28;20489;-75
2023/01/14 02:00:53;;;;;;;0.50;0.30;;;5.30;99.90;;;;;;5024463;28;20211;-76
2023/01/14 02:03:24;;;;;;;4.50;0.83;;;5.30;99.90;;;;;;5020455;28;21015;-75
2023/01/14 02:05:53;;;;;;;1.10;0.30;;;5.20;99.90;;;;;;5017085;28;20491;-75
2023/01/14 02:08:20;;;;;;;2.90;0.50;;;5.30;99.90;;;;;;5022922;28;20514;-75
2023/01/14 02:11:09;;;;;;;3.83;0.40;;;5.20;99.90;;;;;;5020277;28;20466;-75
2023/01/14 02:13:46;;;;;;;0.70;0.20;;;5.20;99.90;;;;;;5024650;28;20461;-75
2023/01/14 02:16:24;;;;;;;1.17;0.40;;;5.20;99.90;;;;;;5022055;28;20497;-76
2023/01/14 02:19:11;;;;;;;0.50;0.30;;;5.20;99.90;;;;;;5021144;28;20922;-75
2023/01/14 02:21:43;;;;;;;0.90;0.63;;;5.20;99.90;;;;;;5021189;28;20478;-76
2023/01/14 02:24:37;;;;;;;4.70;0.53;;;5.20;99.90;;;;;;5016661;28;20933;-75
2023/01/14 02:27:31;;;;;;;1.07;0.30;;;5.20;99.90;;;;;;5021268;28;20450;-75
2023/01/14 02:30:24;;;;;;;1.10;0.40;;;5.10;99.90;;;;;;5019576;28;20449;-76
2023/01/14 02:32:56;;;;;;;0.60;0.57;;;5.10;99.90;;;;;;5018066;28;21047;-75
2023/01/14 02:35:33;;;;;;;4.37;0.40;;;5.20;99.90;;;;;;5018519;28;20996;-75
2023/01/14 02:38:22;;;;;;;3.00;0.30;;;5.20;99.90;;;;;;5019317;28;20485;-75
2023/01/14 02:40:54;;;;;;;0.77;0.30;;;5.20;99.90;;;;;;5017415;28;20964;-74
2023/01/14 02:46:18;;;;;;;0.40;0.20;;;5.30;99.90;;;;;;5020312;28;20843;-75
2023/01/14 02:48:47;;;;;;;1.17;0.40;;;5.20;99.90;;;;;;5020846;28;20516;-75
2023/01/14 02:51:15;;;;;;;0.40;0.20;;;5.20;99.90;;;;;;5021328;28;20862;-75
2023/01/14 02:53:42;;;;;;;0.70;0.30;;;5.30;99.90;;;;;;5019685;28;20482;-75
2023/01/14 02:56:11;;;;;;;0.40;0.30;;;5.30;99.90;;;;;;5019969;28;20484;-75
2023/01/14 02:58:53;;;;;;;0.50;0.30;;;5.20;99.90;;;;;;5022579;28;20577;-75
2023/01/14 03:01:45;;;;;;;1.77;0.40;;;5.20;99.90;;;;;;5024088;28;20559;-75
2023/01/14 03:04:29;;;;;;;2.93;0.30;;;5.10;99.90;;;;;;5020328;28;20556;-75
2023/01/14 03:07:05;;;;;;;1.10;0.30;;;5.10;99.90;;;;;;5019370;28;20475;-75
2023/01/14 03:09:40;;;;;;;0.40;0.30;;;5.20;99.90;;;;;;5021266;28;20578;-74
2023/01/14 03:12:16;;;;;;;0.50;0.30;;;5.20;99.90;;;;;;5020177;28;20453;-75
2023/01/14 03:14:47;;;;;;;0.70;0.30;;;5.20;99.90;;;;;;5017615;28;20763;-75
2023/01/14 03:17:22;;;;;;;0.97;0.40;;;5.20;99.90;;;;;;5019343;28;20490;-75
2023/01/14 03:19:58;;;;;;;0.50;0.30;;;5.20;99.90;;;;;;5016801;28;21004;-75
2023/01/14 03:22:27;;;;;;;1.20;0.27;;;5.30;99.90;;;;;;5017760;28;20543;-75
2023/01/14 03:24:58;;;;;;;2.40;0.40;;;5.30;99.90;;;;;;5017243;28;20541;-75
2023/01/14 03:27:31;;;;;;;1.17;0.67;;;5.40;99.90;;;;;;5019496;28;20752;-75
2023/01/14 03:30:03;;;;;;;0.97;0.20;;;5.40;99.90;;;;;;5018537;28;20737;-75
2023/01/14 03:32:36;;;;;;;3.50;0.40;;;5.30;99.90;;;;;;5022337;28;20837;-75
2023/01/14 03:35:07;;;;;;;2.43;0.50;;;5.40;99.90;;;;;;5017941;28;20547;-75
2023/01/14 03:37:34;;;;;;;1.50;0.30;;;5.50;99.90;;;;;;5020205;28;20576;-75
2023/01/14 03:40:05;;;;;;;0.70;0.30;;;5.40;99.90;;;;;;5019009;28;20531;-75
2023/01/14 03:42:40;;;;;;;2.43;0.70;;;5.40;99.90;;;;;;5020439;28;20518;-75
2023/01/14 03:45:11;;;;;;;0.90;0.47;;;5.40;99.90;;;;;;5021318;28;20449;-75
2023/01/14 03:47:41;;;;;;;1.90;0.40;;;5.40;99.90;;;;;;5020702;28;20498;-75
2023/01/14 03:50:12;;;;;;;1.37;0.40;;;5.50;99.90;;;;;;5018736;28;20514;-75
2023/01/14 03:53:10;;;;;;;0.70;0.20;;;5.50;99.90;;;;;;5022198;28;20468;-75
2023/01/14 03:55:43;;;;;;;2.90;0.30;;;5.50;99.90;;;;;;5018900;28;20496;-75
2023/01/14 03:58:15;;;;;;;0.83;0.83;;;5.50;99.90;;;;;;5022466;28;20958;-75
2023/01/14 04:00:49;;;;;;;2.50;0.30;;;5.50;99.90;;;;;;5024631;28;20493;-75
2023/01/14 04:03:18;;;;;;;3.80;0.90;;;5.30;99.90;;;;;;5022277;28;20843;-75
2023/01/14 04:05:46;;;;;;;3.23;0.30;;;5.30;99.90;;;;;;5021469;28;20486;-75
2023/01/14 04:08:13;;;;;;;1.53;0.40;;;5.30;99.90;;;;;;5025780;28;20896;-75
2023/01/14 04:10:39;;;;;;;0.60;0.30;;;5.30;99.90;;;;;;5022000;28;20489;-75
2023/01/14 04:15:51;;;;;;;0.80;0.30;;;5.30;99.90;;;;;;5023633;28;21039;-74
2023/01/14 04:18:19;;;;;;;0.77;0.30;;;5.30;99.90;;;;;;5024206;28;20494;-75
2023/01/14 04:20:46;;;;;;;1.50;0.30;;;5.40;99.90;;;;;;5021508;28;20544;-75
2023/01/14 04:23:13;;;;;;;2.05;0.52;;;5.50;99.90;;;;;;5023179;28;20493;-75
2023/01/14 04:25:40;;;;;;;0.50;0.30;;;5.50;99.90;;;;;;5029015;28;20250;-75
2023/01/14 04:28:07;;;;;;;1.63;0.40;;;5.50;99.90;;;;;;5023562;28;20453;-75
2023/01/14 04:30:34;;;;;;;0.70;0.40;;;5.40;99.90;;;;;;5025161;28;20559;-75
2023/01/14 04:33:00;;;;;;;0.50;0.30;;;5.50;99.90;;;;;;5023954;28;20515;-75
2023/01/14 04:35:29;;;;;;;0.60;0.40;;;5.40;99.90;;;;;;5024441;28;20307;-75
2023/01/14 04:37:56;;;;;;;0.90;0.30;;;5.40;99.90;;;;;;5023214;28;20571;-75
2023/01/14 04:40:23;;;;;;;1.37;0.30;;;5.40;99.90;;;;;;5022910;28;20489;-75
2023/01/14 04:42:50;;;;;;;0.40;0.20;;;5.40;99.90;;;;;;5023199;28;20521;-75
2023/01/14 04:45:19;;;;;;;0.50;0.37;;;5.40;99.90;;;;;;5021220;28;20527;-75
2023/01/14 04:47:46;;;;;;;2.00;0.50;;;5.40;99.90;;;;;;5022747;28;20919;-75
2023/01/14 04:50:33;;;;;;;0.60;0.30;;;5.40;99.90;;;;;;5025523;28;20623;-75
2023/01/14 04:53:12;;;;;;;0.40;0.30;;;5.40;99.90;;;;;;5019307;28;21212;-75
2023/01/14 04:55:40;;;;;;;2.20;0.20;;;5.40;99.90;;;;;;5024925;28;20777;-75
2023/01/14 04:58:09;;;;;;;1.17;0.30;;;5.40;99.90;;;;;;5023428;28;20513;-75
2023/01/14 05:00:36;;;;;;;0.83;0.30;;;5.40;99.90;;;;;;5020544;28;20886;-75
2023/01/14 05:03:04;;;;;;;2.77;0.40;;;5.40;99.90;;;;;;5023927;28;20497;-75
2023/01/14 05:05:31;;;;;;;1.07;0.37;;;5.40;99.90;;;;;;5020714;28;20933;-75
2023/01/14 05:07:58;;;;;;;1.23;0.40;;;5.50;99.90;;;;;;5020856;28;20481;-75
2023/01/14 05:10:27;;;;;;;3.47;0.43;;;5.50;99.90;;;;;;5019080;28;20571;-75
2023/01/14 05:13:00;;;;;;;0.70;0.20;;;5.50;99.90;;;;;;5025603;28;20512;-75
2023/01/14 05:15:30;;;;;;;0.50;0.30;;;5.50;99.90;;;;;;5018804;28;20478;-75
2023/01/14 05:17:58;;;;;;;1.90;0.30;;;5.50;99.90;;;;;;5024638;28;20547;-75
2023/01/14 05:20:25;;;;;;;1.70;0.60;;;5.40;99.90;;;;;;5022048;28;20494;-75
2023/01/14 05:22:52;;;;;;;2.10;0.37;;;5.40;99.90;;;;;;5021858;28;20591;-75
2023/01/14 05:25:19;;;;;;;1.90;0.30;;;5.40;99.90;;;;;;5019876;28;20488;-75
2023/01/14 05:27:48;;;;;;;0.90;0.30;;;5.30;99.90;;;;;;5019799;28;20942;-75
2023/01/14 05:30:15;;;;;;;1.37;0.30;;;5.30;99.90;;;;;;5023665;28;20839;-75
2023/01/14 05:32:42;;;;;;;0.47;0.30;;;5.20;99.90;;;;;;5019493;28;20597;-75
2023/01/14 05:35:10;;;;;;;2.00;0.60;;;5.20;99.90;;;;;;5022782;28;20454;-75
2023/01/14 05:37:37;;;;;;;0.50;0.30;;;5.20;99.90;;;;;;5019522;28;20497;-75
2023/01/14 05:40:04;;;;;;;0.83;0.30;;;5.20;99.90;;;;;;5022317;28;20493;-75
2023/01/14 05:48:02;;;;;;;4.43;0.40;;;5.10;99.90;;;;;;5023853;28;20452;-75
2023/01/14 05:50:29;;;;;;;1.27;0.30;;;5.10;99.90;;;;;;5019243;28;21052;-75
2023/01/14 05:52:55;;;;;;;1.43;0.47;;;5.10;99.90;;;;;;5026612;28;20476;-75
2023/01/14 05:55:23;;;;;;;1.03;0.30;;;5.00;99.90;;;;;;5019801;28;20874;-75
2023/01/14 05:57:49;;;;;;;0.47;0.27;;;5.00;99.90;;;;;;5021136;28;20905;-75
2023/01/14 06:08:33;;;;;;;2.60;1.00;;;5.00;99.90;;;;;;5017288;28;20523;-74
2023/01/14 06:11:00;;;;;;;2.57;2.37;;;4.90;99.90;;;;;;5016807;28;20535;-75
2023/01/14 06:13:27;;;;;;;7.53;4.80;;;4.90;99.90;;;;;;5014151;28;20864;-75
2023/01/14 06:15:56;;;;;;;26.27;15.77;;;4.80;99.90;;;;;;5016941;28;20467;-75
2023/01/14 06:18:24;;;;;;;9.30;5.90;;;4.80;99.90;;;;;;5026606;28;20458;-76
2023/01/14 06:20:52;;;;;;;7.30;4.70;;;4.80;99.90;;;;;;5011708;28;20492;-75
2023/01/14 06:23:20;;;;;;;3.50;1.30;;;4.80;99.90;;;;;;5003466;28;20924;-75
2023/01/14 06:25:48;;;;;;;0.70;0.40;;;4.80;99.90;;;;;;5021316;28;20522;-75
2023/01/14 06:28:16;;;;;;;2.20;1.30;;;4.80;99.90;;;;;;5017015;28;20564;-75
2023/01/14 06:30:43;;;;;;;17.10;13.38;;;4.70;99.90;;;;;;5018120;28;20578;-75
2023/01/14 06:33:12;;;;;;;2.63;1.90;;;4.70;99.90;;;;;;5016168;28;20235;-75
2023/01/14 06:35:42;;;;;;;4.17;2.50;;;4.60;99.90;;;;;;5022294;28;20489;-75
2023/01/14 06:38:09;;;;;;;3.27;1.83;;;4.50;99.90;;;;;;5018213;28;20474;-75
2023/01/14 06:40:37;;;;;;;3.17;1.07;;;4.40;99.90;;;;;;5026323;28;20468;-76
2023/01/14 06:43:05;;;;;;;1.83;1.73;;;4.30;99.90;;;;;;5021696;28;20484;-75
2023/01/14 06:45:32;;;;;;;6.23;0.83;;;4.20;99.90;;;;;;5022907;28;20668;-76
2023/01/14 06:48:00;;;;;;;2.93;1.30;;;4.20;99.90;;;;;;5021439;28;20473;-75
2023/01/14 06:50:28;;;;;;;1.90;0.60;;;4.10;99.90;;;;;;5020716;28;20489;-75
2023/01/14 06:53:00;;;;;;;1.20;0.30;;;3.90;99.90;;;;;;5023183;28;20493;-75
2023/01/14 06:55:27;;;;;;;6.72;0.50;;;3.90;99.90;;;;;;5021297;28;20551;-76
2023/01/14 06:57:54;;;;;;;2.77;0.43;;;3.80;99.90;;;;;;5020591;28;20413;-75
2023/01/14 07:00:21;;;;;;;1.13;0.30;;;3.80;99.90;;;;;;5011863;28;20487;-75
2023/01/14 07:02:48;;;;;;;1.00;0.63;;;3.70;99.90;;;;;;5006307;28;20884;-75
2023/01/14 07:05:16;;;;;;;1.33;0.50;;;3.80;99.90;;;;;;5010568;28;20552;-75
2023/01/14 07:07:45;;;;;;;2.53;0.33;;;3.80;99.90;;;;;;5006467;28;20450;-75
2023/01/14 07:10:12;;;;;;;2.37;1.23;;;3.80;99.90;;;;;;5011130;28;20491;-75
2023/01/14 07:12:39;;;;;;;2.50;1.20;;;4.00;99.90;;;;;;5013442;28;20519;-75
2023/01/14 07:15:07;;;;;;;3.70;1.13;;;4.20;99.90;;;;;;5011839;28;20507;-75
2023/01/14 07:17:34;;;;;;;1.00;0.87;;;4.30;99.90;;;;;;5011988;28;20466;-75
2023/01/14 07:20:01;;;;;;;4.73;0.80;;;4.30;99.90;;;;;;5020194;28;20729;-75
2023/01/14 07:22:28;;;;;;;4.23;1.40;;;4.40;99.90;;;;;;5015505;28;21068;-78
2023/01/14 07:24:56;;;;;;;2.50;1.17;;;4.50;99.90;;;;;;5019823;28;20497;-78
2023/01/14 07:27:23;;;;;;;1.40;0.50;;;4.70;99.90;;;;;;5021684;28;20450;-78
2023/01/14 07:29:50;;;;;;;5.00;0.60;;;4.70;99.90;;;;;;5023370;28;20574;-78
2023/01/14 07:32:17;;;;;;;4.10;1.10;;;4.70;99.90;;;;;;5025999;28;20799;-78
2023/01/14 07:34:44;;;;;;;2.90;0.50;;;4.70;99.90;;;;;;5023262;28;20523;-78
2023/01/14 07:37:11;;;;;;;2.50;0.50;;;4.70;99.90;;;;;;5024626;28;20539;-76
2023/01/14 07:39:38;;;;;;;4.03;0.43;;;4.80;99.90;;;;;;5033882;28;20519;-76
2023/01/14 07:42:06;;;;;;;1.20;0.70;;;4.80;99.90;;;;;;5023898;28;20509;-76
2023/01/14 07:44:33;;;;;;;1.02;0.50;;;4.80;99.90;;;;;;5014731;28;20500;-76
2023/01/14 07:47:01;;;;;;;2.53;0.40;;;4.70;99.90;;;;;;5023565;28;20243;-76
2023/01/14 07:49:28;;;;;;;1.10;0.40;;;4.70;99.90;;;;;;5017350;28;20497;-76
2023/01/14 07:51:55;;;;;;;2.10;0.50;;;4.80;99.90;;;;;;5016632;28;20459;-76
2023/01/14 07:54:22;;;;;;;2.03;0.90;;;5.10;99.90;;;;;;5022742;28;20498;-76
2023/01/14 07:56:50;;;;;;;1.50;0.53;;;5.30;99.90;;;;;;5025021;28;20473;-75
2023/01/14 07:59:18;;;;;;;2.97;0.45;;;5.50;99.90;;;;;;5021269;28;20472;-77
2023/01/14 08:01:45;;;;;;;3.03;0.70;;;5.60;99.90;;;;;;5024328;28;20697;-76
2023/01/14 08:04:12;;;;;;;0.80;0.40;;;5.60;99.90;;;;;;5015961;28;20497;-76
2023/01/14 08:06:39;;;;;;;2.97;1.17;;;5.60;99.90;;;;;;5010987;28;20972;-76
2023/01/14 08:09:06;;;;;;;1.57;0.43;;;5.60;99.90;;;;;;5017089;28;20470;-76
2023/01/14 08:11:33;;;;;;;2.10;0.83;;;5.50;99.90;;;;;;5015617;28;20898;-76
2023/01/14 08:14:00;;;;;;;1.73;0.30;;;5.50;99.90;;;;;;5022498;28;20500;-74
2023/01/14 08:16:28;;;;;;;3.03;1.00;;;5.40;99.90;;;;;;5025393;28;20983;-74
2023/01/14 08:18:55;;;;;;;4.13;0.50;;;5.40;99.90;;;;;;5031241;28;20565;-74
2023/01/14 08:21:22;;;;;;;3.13;0.60;;;5.30;99.90;;;;;;5023996;28;20207;-74
2023/01/14 08:23:49;;;;;;;2.97;0.60;;;5.30;99.90;;;;;;5021573;28;20966;-74
2023/01/14 08:26:16;;;;;;;3.37;1.63;;;5.40;99.90;;;;;;5026203;28;20494;-74
2023/01/14 08:28:44;;;;;;;3.43;1.17;;;5.40;99.90;;;;;;5023378;28;21039;-74
2023/01/14 08:31:13;;;;;;;12.00;5.13;;;5.30;99.90;;;;;;5015103;28;20588;-74
2023/01/14 08:33:42;;;;;;;10.50;2.23;;;5.20;99.90;;;;;;5020100;28;20482;-74
2023/01/14 08:36:11;;;;;;;3.70;0.67;;;5.30;99.90;;;;;;5024327;28;20450;-74
2023/01/14 08:38:40;;;;;;;1.63;0.47;;;5.40;99.90;;;;;;5014713;28;20503;-74
2023/01/14 08:41:10;;;;;;;2.47;0.30;;;5.50;99.90;;;;;;5007077;28;20463;-75
2023/01/14 08:43:36;;;;;;;2.90;0.67;;;5.50;99.90;;;;;;5012944;28;20545;-76
2023/01/14 08:46:05;;;;;;;2.25;0.55;;;5.50;99.90;;;;;;5015381;28;20493;-76
2023/01/14 08:48:32;;;;;;;4.30;1.35;;;5.30;99.90;;;;;;5020695;28;20239;-76
2023/01/14 08:51:01;;;;;;;4.67;1.87;;;5.20;99.90;;;;;;5016764;28;20313;-76
2023/01/14 08:53:28;;;;;;;4.23;1.50;;;5.10;99.90;;;;;;5018828;28;20458;-75
2023/01/14 08:55:57;;;;;;;1.23;0.40;;;5.30;99.90;;;;;;5021628;28;20566;-76
2023/01/14 08:58:24;;;;;;;1.50;0.70;;;5.40;99.90;;;;;;5021934;28;20469;-76
2023/01/14 09:00:55;;;;;;;0.57;0.37;;;5.60;99.90;;;;;;5022185;28;20540;-76
2023/01/14 09:03:22;;;;;;;2.97;0.50;;;5.60;99.90;;;;;;5019894;28;20489;-76
2023/01/14 09:05:49;;;;;;;4.30;0.50;;;5.60;99.90;;;;;;5023367;28;20476;-76
2023/01/14 09:19:25;;;;;;;2.50;0.40;;;5.70;99.90;;;;;;5021538;28;20873;-76
2023/01/14 09:21:52;;;;;;;1.10;0.50;;;5.80;99.90;;;;;;5006166;28;20451;-77
2023/01/14 09:24:20;;;;;;;3.47;0.40;;;6.00;99.90;;;;;;5007782;28;21298;-77
2023/01/14 09:26:47;;;;;;;2.10;0.83;;;6.10;99.90;;;;;;5015300;28;20536;-77
2023/01/14 09:29:14;;;;;;;0.93;0.83;;;6.20;99.90;;;;;;5004872;28;20546;-77
2023/01/14 09:31:41;;;;;;;1.23;0.40;;;6.20;99.90;;;;;;5014118;28;20581;-77
2023/01/14 09:34:08;;;;;;;1.43;0.93;;;6.30;99.90;;;;;;5007055;28;20581;-77
2023/01/14 09:36:35;;;;;;;1.33;1.23;;;6.40;99.90;;;;;;5013151;28;20984;-77
2023/01/14 09:39:02;;;;;;;3.80;0.50;;;6.60;99.90;;;;;;5009836;28;20494;-76
2023/01/14 09:41:32;;;;;;;2.27;0.50;;;6.70;99.90;;;;;;5017468;28;20528;-76
2023/01/14 09:44:01;;;;;;;1.47;0.60;;;6.70;99.90;;;;;;5010081;28;20872;-76
2023/01/14 09:46:29;;;;;;;0.50;0.40;;;6.90;99.90;;;;;;5010538;28;20494;-76
2023/01/14 09:48:59;;;;;;;1.37;0.40;;;6.90;99.90;;;;;;5018227;28;20445;-76
2023/01/14 09:51:44;;;;;;;0.40;0.30;;;7.00;99.90;;;;;;5023554;28;20524;-76
2023/01/14 09:54:18;;;;;;;1.27;0.40;;;7.10;99.90;;;;;;5005998;28;20545;-76
2023/01/14 09:56:53;;;;;;;1.80;0.40;;;7.10;99.90;;;;;;5010546;28;20464;-76
2023/01/14 09:59:29;;;;;;;0.40;0.30;;;7.20;99.90;;;;;;5009408;28;20540;-76
2023/01/14 10:02:01;;;;;;;0.80;0.50;;;7.30;99.90;;;;;;5010015;28;20551;-76
2023/01/14 10:04:41;;;;;;;0.73;0.47;;;7.40;99.90;;;;;;5014525;28;20458;-76
2023/01/14 10:07:12;;;;;;;1.07;0.50;;;7.40;99.90;;;;;;5013513;28;20476;-76
2023/01/14 10:09:44;;;;;;;0.50;0.40;;;7.50;99.90;;;;;;5019575;28;20833;-76
2023/01/14 10:12:18;;;;;;;0.77;0.40;;;7.60;99.90;;;;;;5020452;28;20535;-76
2023/01/14 10:14:50;;;;;;;2.00;0.70;;;7.40;99.90;;;;;;5024230;28;20498;-76
2023/01/14 10:17:21;;;;;;;0.57;0.40;;;7.40;99.90;;;;;;5014996;28;22210;-76
2023/01/14 10:19:50;;;;;;;1.20;0.50;;;7.50;99.90;;;;;;5015095;28;20899;-76
2023/01/14 10:22:34;;;;;;;0.70;0.33;;;7.50;99.90;;;;;;5014451;28;20544;-76
2023/01/14 10:25:01;;;;;;;1.30;0.33;;;7.60;99.90;;;;;;5018713;28;20450;-76
2023/01/14 10:27:31;;;;;;;1.50;0.50;;;7.60;99.90;;;;;;5017891;28;20596;-76
2023/01/14 10:30:15;;;;;;;3.27;0.50;;;7.70;99.90;;;;;;5021106;28;20922;-76
2023/01/14 10:32:42;;;;;;;7.00;0.83;;;7.80;99.90;;;;;;5014430;28;20496;-76
2023/01/14 10:35:14;;;;;;;2.00;0.37;;;7.80;99.90;;;;;;5014300;28;20466;-76
2023/01/14 10:37:41;;;;;;;5.70;0.40;;;7.90;99.90;;;;;;5011263;28;20470;-76
2023/01/14 10:40:21;;;;;;;2.57;0.50;;;7.90;99.90;;;;;;5006630;28;20902;-76
2023/01/14 10:42:50;;;;;;;2.87;0.50;;;8.00;99.90;;;;;;5007414;28;20961;-76
2023/01/14 10:45:17;;;;;;;1.17;0.57;;;8.10;99.90;;;;;;5005920;28;20567;-76
2023/01/14 10:47:46;;;;;;;4.32;0.68;;;8.10;99.90;;;;;;5005244;28;20502;-76
2023/01/14 10:50:19;;;;;;;0.80;0.40;;;8.00;99.90;;;;;;5007229;28;20302;-76
2023/01/14 10:52:45;;;;;;;1.70;0.67;;;8.20;99.90;;;;;;5015249;28;20493;-76
2023/01/14 10:55:17;;;;;;;1.27;0.70;;;8.10;99.90;;;;;;5015526;28;20542;-76
2023/01/14 10:57:50;;;;;;;1.53;0.50;;;8.10;99.90;;;;;;5006537;28;20489;-76
2023/01/14 11:00:34;;;;;;;5.80;2.78;;;8.30;99.90;;;;;;5003471;28;21043;-76
2023/01/14 11:03:02;;;;;;;1.83;1.00;;;8.40;99.90;;;;;;5018102;28;20623;-76
2023/01/14 11:05:32;;;;;;;0.80;0.40;;;8.40;99.90;;;;;;5017613;28;20964;-76
2023/01/14 11:08:03;;;;;;;0.97;0.30;;;8.40;99.90;;;;;;5012219;28;20949;-76
2023/01/14 11:10:32;;;;;;;3.27;0.97;;;8.50;99.90;;;;;;5010486;28;20714;-76
2023/01/14 11:13:27;;;;;;;1.00;0.40;;;8.60;99.90;;;;;;5014380;28;20563;-76
2023/01/14 11:15:55;;;;;;;1.27;0.40;;;8.60;99.90;;;;;;5014527;28;20241;-76
2023/01/14 11:18:31;;;;;;;1.90;0.60;;;8.60;99.90;;;;;;5009028;28;20490;-76
2023/01/14 11:21:07;;;;;;;1.20;0.60;;;8.60;99.90;;;;;;5012610;28;20245;-76
2023/01/14 11:23:36;;;;;;;2.60;1.47;;;8.50;99.90;;;;;;5014018;28;20497;-76
2023/01/14 11:26:08;;;;;;;5.60;1.13;;;8.60;99.90;;;;;;5015649;28;20453;-76
2023/01/14 11:28:40;;;;;;;5.50;1.00;;;8.70;99.90;;;;;;5017282;28;20469;-76
2023/01/14 11:31:07;;;;;;;2.47;0.67;;;8.70;99.90;;;;;;5023473;28;21082;-76
2023/01/14 11:33:35;;;;;;;3.27;0.70;;;8.80;99.90;;;;;;5017900;28;20796;-76
2023/01/14 11:36:08;;;;;;;3.80;1.10;;;8.80;99.90;;;;;;5020138;28;20535;-76
2023/01/14 11:38:44;;;;;;;3.90;1.00;;;8.80;99.90;;;;;;5020974;28;20744;-76
2023/01/14 11:41:30;;;;;;;0.93;0.40;;;8.80;99.90;;;;;;5019986;28;20779;-76
2023/01/14 11:44:01;;;;;;;2.73;0.40;;;8.80;99.90;;;;;;5020757;28;20482;-76
2023/01/14 11:46:28;;;;;;;1.67;0.50;;;8.80;99.90;;;;;;5022272;28;20965;-76
2023/01/14 11:49:01;;;;;;;0.50;0.40;;;8.90;99.90;;;;;;5023806;28;20790;-76
2023/01/14 11:51:29;;;;;;;1.77;0.40;;;9.00;99.90;;;;;;5027506;28;20871;-76
2023/01/14 11:53:57;;;;;;;1.17;0.43;;;8.90;99.90;;;;;;5025671;28;20489;-76
2023/01/14 11:56:31;;;;;;;1.73;0.50;;;8.90;99.90;;;;;;5029935;28;20465;-76
2023/01/14 11:59:01;;;;;;;4.83;1.03;;;9.00;99.90;;;;;;5026166;28;20523;-76
2023/01/14 12:01:33;;;;;;;5.53;0.97;;;9.10;99.90;;;;;;5021358;28;20490;-76
2023/01/14 12:04:05;;;;;;;2.63;0.40;;;9.20;99.90;;;;;;5016485;28;20465;-76
2023/01/14 12:06:50;;;;;;;1.93;0.50;;;9.20;99.90;;;;;;5014029;28;20450;-76
2023/01/14 12:09:22;;;;;;;3.43;0.60;;;9.20;99.90;;;;;;5011994;28;20541;-76
2023/01/14 12:11:57;;;;;;;0.80;0.40;;;9.30;99.90;;;;;;5018551;28;20820;-77
2023/01/14 12:17:24;;;;;;;3.63;0.50;;;9.30;99.90;;;;;;5018600;28;20464;-77
2023/01/14 12:19:57;;;;;;;7.63;0.60;;;9.40;99.90;;;;;;5016902;28;20455;-77
2023/01/14 12:22:29;;;;;;;4.50;0.63;;;9.40;99.90;;;;;;5013901;28;20454;-77
2023/01/14 12:25:16;;;;;;;1.93;0.73;;;9.50;99.90;;;;;;5014893;28;20646;-77
2023/01/14 12:27:50;;;;;;;3.53;0.67;;;9.40;99.90;;;;;;5014997;28;20854;-77
2023/01/14 12:30:32;;;;;;;2.00;0.50;;;9.50;99.90;;;;;;5005737;28;20543;-77
2023/01/14 12:33:03;;;;;;;3.70;0.50;;;9.60;99.90;;;;;;5019544;28;20508;-77
2023/01/14 12:35:35;;;;;;;2.97;0.60;;;9.50;99.90;;;;;;5020129;28;20766;-77
2023/01/14 12:45:41;;;;;;;2.40;0.40;;;9.50;99.90;;;;;;5009279;28;20977;-77
2023/01/14 12:46:35;;;;;;;0.80;0.40;;;9.70;99.90;;;;;;5030575;28;20529;-77
2023/01/14 12:49:02;;;;;;;3.00;0.70;;;9.60;99.90;;;;;;5026785;28;21095;-77
2023/01/14 12:51:32;;;;;;;4.03;0.50;;;9.60;99.90;;;;;;5028898;28;20600;-77
2023/01/14 12:54:02;;;;;;;1.85;0.52;;;9.70;99.90;;;;;;5032800;28;20234;-77
2023/01/14 12:56:32;;;;;;;2.07;0.50;;;9.70;99.90;;;;;;5030279;28;20486;-77
2023/01/14 12:59:02;;;;;;;1.20;0.60;;;9.80;99.90;;;;;;5018231;28;20489;-77
2023/01/14 13:01:32;;;;;;;2.33;0.60;;;9.70;99.90;;;;;;5024552;28;20527;-76
2023/01/14 13:04:04;;;;;;;3.90;0.50;;;9.80;99.90;;;;;;5026958;28;20470;-77
2023/01/14 13:06:35;;;;;;;2.37;0.40;;;9.80;99.90;;;;;;5021791;28;20938;-77
2023/01/14 13:09:05;;;;;;;2.23;0.70;;;9.80;99.90;;;;;;5015540;28;20814;-77
2023/01/14 13:11:43;;;;;;;2.77;0.90;;;9.80;99.90;;;;;;5017746;28;20522;-77
2023/01/14 13:14:34;;;;;;;6.15;1.00;;;9.70;99.90;;;;;;5022303;28;20511;-77
2023/01/14 13:17:04;;;;;;;3.43;0.50;;;9.80;99.90;;;;;;5021083;28;20689;-77
2023/01/14 13:19:47;;;;;;;2.13;0.70;;;9.70;99.90;;;;;;5023712;28;20481;-77
2023/01/14 13:22:38;;;;;;;2.30;0.60;;;9.60;99.90;;;;;;5017135;28;20442;-76
2023/01/14 13:25:34;;;;;;;2.80;0.50;;;9.60;99.90;;;;;;5017607;28;20450;-77
2023/01/14 13:28:03;;;;;;;4.97;0.80;;;9.70;99.90;;;;;;5018843;28;20470;-77
2023/01/14 13:30:47;;;;;;;1.03;0.30;;;9.50;99.90;;;;;;5019042;28;20991;-77
2023/01/14 13:33:20;;;;;;;2.13;0.40;;;9.40;99.90;;;;;;5017529;28;20937;-74
2023/01/14 13:36:19;;;;;;;1.73;0.50;;;9.30;99.90;;;;;;5015346;28;20523;-74
2023/01/14 13:39:04;;;;;;;3.67;0.40;;;9.40;99.90;;;;;;5004708;28;20912;-74
2023/01/14 13:41:41;;;;;;;3.97;0.80;;;9.40;99.90;;;;;;5010345;28;20526;-74
2023/01/14 13:44:22;;;;;;;2.63;0.53;;;9.30;99.90;;;;;;5010401;28;20489;-75
2023/01/14 13:46:51;;;;;;;2.60;0.80;;;9.20;99.90;;;;;;5008736;28;20576;-74
2023/01/14 13:49:26;;;;;;;1.37;0.50;;;9.30;99.90;;;;;;5014353;28;20466;-74
2023/01/14 13:51:58;;;;;;;3.33;0.50;;;9.30;99.90;;;;;;5012516;28;20518;-74
2023/01/14 13:54:28;;;;;;;5.30;0.50;;;9.20;99.90;;;;;;5014585;28;20497;-74
2023/01/14 13:57:14;;;;;;;2.80;0.50;;;9.20;99.90;;;;;;5012366;28;20554;-74